createdAt,value
2018-02-23T00:01:58.796Z,63.63
2018-02-23T00:04:28.683Z,63.72
2018-02-23T00:06:58.413Z,63.47
2018-02-23T00:09:28.245Z,63.99
2018-02-23T00:11:58.026Z,63.40
2018-02-23T00:14:27.668Z,63.51
2018-02-23T00:16:57.505Z,63.35
2018-02-23T00:19:27.267Z,63.34
2018-02-23T00:21:56.976Z,63.90
2018-02-23T00:24:26.827Z,64.40
2018-02-23T00:26:57.308Z,64.26
2018-02-23T00:29:27.018Z,63.90
2018-02-23T00:31:56.868Z,64.38
2018-02-23T00:34:26.661Z,64.79
2018-02-23T00:36:56.432Z,64.67
2018-02-23T00:39:26.216Z,64.49
2018-02-23T00:41:55.954Z,64.45
2018-02-23T00:44:25.650Z,64.35
2018-02-23T00:46:55.372Z,64.90
2018-02-23T00:49:25.184Z,64.92
2018-02-23T00:51:54.875Z,64.80
2018-02-23T00:54:24.604Z,65.11
2018-02-23T00:56:55.249Z,65.26
2018-02-23T00:59:25.727Z,65.23
2018-02-23T01:01:55.478Z,65.47
2018-02-23T01:04:25.291Z,65.80
2018-02-23T01:06:55.009Z,65.67
2018-02-23T01:09:25.686Z,65.77
2018-02-23T01:11:55.417Z,65.70
2018-02-23T01:14:25.988Z,65.87
2018-02-23T01:16:55.676Z,65.95
2018-02-23T01:19:32.008Z,65.85
2018-02-23T01:22:02.609Z,66.09
2018-02-23T01:24:33.327Z,66.13
2018-02-23T01:27:03.206Z,66.21
2018-02-23T01:29:33.073Z,66.07
2018-02-23T01:32:02.803Z,66.01
2018-02-23T01:34:32.517Z,66.41
2018-02-23T01:37:02.219Z,66.63
2018-02-23T01:39:32.083Z,66.50
2018-02-23T01:42:02.561Z,66.70
2018-02-23T01:44:32.293Z,66.95
2018-02-23T01:47:02.261Z,66.80
2018-02-23T01:49:31.948Z,66.92
2018-02-23T01:52:01.801Z,67.13
2018-02-23T01:54:31.483Z,67.30
2018-02-23T01:57:01.222Z,67.20
2018-02-23T01:59:31.042Z,67.40
2018-02-23T02:02:00.769Z,67.33
2018-02-23T02:04:30.489Z,67.43
2018-02-23T02:07:00.245Z,67.69
2018-02-23T02:09:30.652Z,67.75
2018-02-23T02:12:00.421Z,68.03
2018-02-23T02:14:30.452Z,68.19
2018-02-23T02:17:00.925Z,68.21
2018-02-23T02:19:30.804Z,68.12
2018-02-23T02:22:01.400Z,68.22
2018-02-23T02:24:31.131Z,68.31
2018-02-23T02:27:00.974Z,68.56
2018-02-23T02:29:30.677Z,68.48
2018-02-23T02:32:00.501Z,68.55
2018-02-23T02:34:30.340Z,68.70
2018-02-23T02:37:00.092Z,68.79
2018-02-23T02:39:30.004Z,68.88
2018-02-23T02:41:59.752Z,68.68
2018-02-23T02:44:29.466Z,68.72
2018-02-23T02:46:59.308Z,68.85
2018-02-23T02:49:28.996Z,68.88
2018-02-23T02:51:59.435Z,68.96
2018-02-23T02:54:29.906Z,68.79
2018-02-23T02:57:00.076Z,68.95
2018-02-23T02:59:29.811Z,68.93
2018-02-23T03:01:59.489Z,69.09
2018-02-23T03:04:29.309Z,69.32
2018-02-23T03:07:00.254Z,68.93
2018-02-23T03:09:29.987Z,68.72
2018-02-23T03:11:59.740Z,68.76
2018-02-23T03:14:29.429Z,68.79
2018-02-23T03:16:59.222Z,68.78
2018-02-23T03:19:28.919Z,68.69
2018-02-23T03:21:58.573Z,68.82
2018-02-23T03:24:28.340Z,68.59
2018-02-23T03:26:58.140Z,68.74
2018-02-23T03:29:27.845Z,68.61
2018-02-23T03:31:57.587Z,68.36
2018-02-23T03:34:27.372Z,68.58
2018-02-23T03:36:57.061Z,68.52
2018-02-23T03:39:26.795Z,68.46
2018-02-23T03:41:57.497Z,68.54
2018-02-23T03:44:27.259Z,68.63
2018-02-23T03:46:56.947Z,68.55
2018-02-23T03:49:26.694Z,68.49
2018-02-23T03:51:56.348Z,68.76
2018-02-23T03:54:26.039Z,68.94
2018-02-23T03:56:55.723Z,68.98
2018-02-23T03:59:25.492Z,68.77
2018-02-23T04:01:55.916Z,68.93
2018-02-23T04:04:25.700Z,69.17
2018-02-23T04:06:55.804Z,69.42
2018-02-23T04:09:25.483Z,69.23
2018-02-23T04:11:55.143Z,69.45
2018-02-23T04:14:24.911Z,69.42
2018-02-23T04:16:54.655Z,69.55
2018-02-23T04:19:26.782Z,69.76
2018-02-23T04:21:56.540Z,70.01
2018-02-23T04:24:26.270Z,70.37
2018-02-23T04:26:56.097Z,70.33
2018-02-23T04:29:25.876Z,70.41
2018-02-23T04:31:55.831Z,70.51
2018-02-23T04:34:25.508Z,71.01
2018-02-23T04:36:55.213Z,70.86
2018-02-23T04:39:24.956Z,71.45
2018-02-23T04:41:54.640Z,71.68
2018-02-23T04:44:25.125Z,71.71
2018-02-23T04:46:55.314Z,71.50
2018-02-23T04:49:25.828Z,71.59
2018-02-23T04:51:55.661Z,71.80
2018-02-23T04:54:25.352Z,72.04
2018-02-23T04:56:55.036Z,73.48
2018-02-23T04:59:24.703Z,72.52
2018-02-23T05:01:54.406Z,72.83
2018-02-23T05:04:24.253Z,73.22
2018-02-23T05:06:54.137Z,73.57
2018-02-23T05:09:24.474Z,73.29
2018-02-23T05:11:54.221Z,73.33
2018-02-23T05:14:24.113Z,73.57
2018-02-23T05:16:53.961Z,73.75
2018-02-23T05:19:23.777Z,73.50
2018-02-23T05:21:53.634Z,73.84
2018-02-23T05:24:23.784Z,73.46
2018-02-23T05:26:53.525Z,73.82
2018-02-23T05:29:24.052Z,73.60
2018-02-23T05:31:53.751Z,73.90
2018-02-23T05:34:23.672Z,74.03
2018-02-23T05:36:53.415Z,74.15
2018-02-23T05:39:23.154Z,74.31
2018-02-23T05:41:53.752Z,74.31
2018-02-23T05:44:23.445Z,74.01
2018-02-23T05:46:53.281Z,74.27
2018-02-23T05:49:23.020Z,74.20
2018-02-23T05:51:52.853Z,74.28
2018-02-23T05:54:22.721Z,74.21
2018-02-23T05:56:53.647Z,73.67
2018-02-23T05:59:23.376Z,73.60
2018-02-23T06:01:53.188Z,73.71
2018-02-23T06:04:23.752Z,73.70
2018-02-23T06:06:54.383Z,73.38
2018-02-23T06:09:24.057Z,73.13
2018-02-23T06:11:53.926Z,73.18
2018-02-23T06:14:23.703Z,73.09
2018-02-23T06:16:53.448Z,73.20
2018-02-23T06:19:27.258Z,73.05
2018-02-23T06:21:56.925Z,71.83
2018-02-23T06:24:30.026Z,71.32
2018-02-23T06:27:00.479Z,71.38
2018-02-23T06:29:30.191Z,70.91
2018-02-23T06:32:01.229Z,70.60
2018-02-23T06:34:31.751Z,70.59
2018-02-23T06:37:02.341Z,70.51
2018-02-23T06:39:32.187Z,70.41
2018-02-23T06:42:03.077Z,70.03
2018-02-23T06:44:34.188Z,69.11
2018-02-23T06:47:09.055Z,69.23
2018-02-23T06:49:38.932Z,68.88
2018-02-23T06:52:10.357Z,68.04
2018-02-23T06:54:40.049Z,67.74
2018-02-23T06:57:10.523Z,67.46
2018-02-23T06:59:41.224Z,67.60
2018-02-23T07:02:11.302Z,66.50
2018-02-23T07:04:41.085Z,65.69
2018-02-23T07:07:11.636Z,65.61
2018-02-23T07:09:41.821Z,65.57
2018-02-23T07:12:12.196Z,64.23
2018-02-23T07:14:42.736Z,63.99
2018-02-23T07:17:12.993Z,63.48
2018-02-23T07:19:43.036Z,63.26
2018-02-23T07:22:13.264Z,62.39
2018-02-23T07:24:43.859Z,62.02
2018-02-23T07:27:13.938Z,61.73
2018-02-23T07:29:43.894Z,60.92
2018-02-23T07:32:13.873Z,60.28
2018-02-23T07:34:44.000Z,60.11
2018-02-23T07:37:13.919Z,58.45
2018-02-23T07:39:44.033Z,57.85
2018-02-23T07:42:14.869Z,57.19
2018-02-23T07:44:44.685Z,57.04
2018-02-23T07:47:15.156Z,56.86
2018-02-23T07:49:45.003Z,56.29
2018-02-23T07:52:15.541Z,55.49
2018-02-23T07:54:45.229Z,54.52
2018-02-23T07:57:16.624Z,54.63
2018-02-23T07:59:46.435Z,53.28
2018-02-23T08:02:16.422Z,52.99
2018-02-23T08:04:46.286Z,52.39
2018-02-23T08:07:16.002Z,51.34
2018-02-23T08:09:45.695Z,50.74
2018-02-23T08:12:15.452Z,49.21
2018-02-23T08:14:45.455Z,49.15
2018-02-23T08:17:15.192Z,49.05
2018-02-23T08:19:45.100Z,48.24
2018-02-23T08:22:14.911Z,47.92
2018-02-23T08:24:45.516Z,48.30
2018-02-23T08:27:16.128Z,48.18
2018-02-23T08:29:46.979Z,47.74
2018-02-23T08:32:16.699Z,48.02
2018-02-23T08:34:46.702Z,47.56
2018-02-23T08:37:16.440Z,47.27
2018-02-23T08:39:46.249Z,46.51
2018-02-23T08:42:16.688Z,46.38
2018-02-23T08:44:46.555Z,45.91
2018-02-23T08:47:16.283Z,46.34
2018-02-23T08:49:46.176Z,45.94
2018-02-23T08:52:16.065Z,45.42
2018-02-23T08:54:46.279Z,45.47
2018-02-23T08:57:16.872Z,45.30
2018-02-23T08:59:46.581Z,45.20
2018-02-23T09:02:16.444Z,45.10
2018-02-23T09:04:46.537Z,45.08
2018-02-23T09:07:16.560Z,44.78
2018-02-23T09:09:46.612Z,44.62
2018-02-23T09:12:16.513Z,44.86
2018-02-23T09:14:46.399Z,44.41
2018-02-23T09:17:16.399Z,44.35
2018-02-23T09:19:46.598Z,44.21
2018-02-23T09:22:16.477Z,44.31
2018-02-23T09:24:47.253Z,44.32
2018-02-23T09:27:17.130Z,44.10
2018-02-23T09:29:47.009Z,44.07
2018-02-23T09:32:21.766Z,43.98
2018-02-23T09:34:51.934Z,43.61
2018-02-23T09:37:21.973Z,43.76
2018-02-23T09:39:51.906Z,43.90
2018-02-23T09:42:22.686Z,44.32
2018-02-23T09:44:52.819Z,44.51
2018-02-23T09:47:22.594Z,44.61
2018-02-23T09:49:52.293Z,44.17
2018-02-23T09:52:22.117Z,44.08
2018-02-23T09:54:51.870Z,43.78
2018-02-23T09:57:22.380Z,43.83
2018-02-23T09:59:52.884Z,43.62
2018-02-23T10:02:22.653Z,43.66
2018-02-23T10:04:52.508Z,43.54
2018-02-23T10:07:23.029Z,43.69
2018-02-23T10:09:52.822Z,44.05
2018-02-23T10:12:22.589Z,44.14
2018-02-23T10:14:53.065Z,43.80
2018-02-23T10:17:22.874Z,44.04
2018-02-23T10:19:52.633Z,44.04
2018-02-23T10:22:22.452Z,43.62
2018-02-23T10:24:52.295Z,43.61
2018-02-23T10:27:22.059Z,43.32
2018-02-23T10:29:51.848Z,43.20
2018-02-23T10:32:21.642Z,43.56
2018-02-23T10:34:51.501Z,43.51
2018-02-23T10:37:21.317Z,43.18
2018-02-23T10:39:51.200Z,43.34
2018-02-23T10:42:21.061Z,43.19
2018-02-23T10:44:50.925Z,42.78
2018-02-23T10:47:21.428Z,42.58
2018-02-23T10:49:51.211Z,42.97
2018-02-23T10:52:20.954Z,43.11
2018-02-23T10:54:50.744Z,43.05
2018-02-23T10:57:20.534Z,42.89
2018-02-23T10:59:51.070Z,43.14
2018-02-23T11:02:21.660Z,43.07
2018-02-23T11:04:51.533Z,43.67
2018-02-23T11:07:21.379Z,43.28
2018-02-23T11:09:51.112Z,43.00
2018-02-23T11:12:20.793Z,43.31
2018-02-23T11:14:50.632Z,43.11
2018-02-23T11:17:21.317Z,42.80
2018-02-23T11:19:51.096Z,42.90
2018-02-23T11:22:20.896Z,42.74
2018-02-23T11:24:50.754Z,43.01
2018-02-23T11:27:21.254Z,42.79
2018-02-23T11:29:51.009Z,42.75
2018-02-23T11:32:20.721Z,43.01
2018-02-23T11:34:50.480Z,42.31
2018-02-23T11:37:20.558Z,41.72
2018-02-23T11:39:51.757Z,41.63
2018-02-23T11:42:21.528Z,41.73
2018-02-23T11:44:51.328Z,41.61
2018-02-23T11:47:21.029Z,41.48
2018-02-23T11:49:50.736Z,41.62
2018-02-23T11:52:21.466Z,41.69
2018-02-23T11:54:51.464Z,41.02
2018-02-23T11:57:25.192Z,40.95
2018-02-23T11:59:54.992Z,40.96
2018-02-23T12:02:24.817Z,40.87
2018-02-23T12:04:54.543Z,40.89
2018-02-23T12:07:24.361Z,40.60
2018-02-23T12:09:54.055Z,40.10
2018-02-23T12:12:23.908Z,40.04
2018-02-23T12:14:53.691Z,39.97
2018-02-23T12:17:23.461Z,39.82
2018-02-23T12:19:54.043Z,39.45
2018-02-23T12:22:24.622Z,39.45
2018-02-23T12:24:54.533Z,39.62
2018-02-23T12:27:24.378Z,39.76
2018-02-23T12:29:54.092Z,39.80
2018-02-23T12:32:23.845Z,40.04
2018-02-23T12:34:53.680Z,39.79
2018-02-23T12:37:23.416Z,39.69
2018-02-23T12:39:53.955Z,39.50
2018-02-23T12:42:23.725Z,39.51
2018-02-23T12:44:53.475Z,39.10
2018-02-23T12:47:23.355Z,39.33
2018-02-23T12:49:53.102Z,39.10
2018-02-23T12:52:25.759Z,39.24
2018-02-23T12:54:56.239Z,39.21
2018-02-23T12:57:26.050Z,39.25
2018-02-23T12:59:55.800Z,39.16
2018-02-23T13:02:26.424Z,38.52
2018-02-23T13:04:56.128Z,38.42
2018-02-23T13:07:25.887Z,37.62
2018-02-23T13:09:55.753Z,37.74
2018-02-23T13:12:26.292Z,37.76
2018-02-23T13:15:00.959Z,38.32
2018-02-23T13:17:30.832Z,38.34
2018-02-23T13:20:00.532Z,38.49
2018-02-23T13:22:30.310Z,38.56
2018-02-23T13:25:00.098Z,38.24
2018-02-23T13:27:29.931Z,38.50
2018-02-23T13:29:59.641Z,38.45
2018-02-23T13:32:29.439Z,38.57
2018-02-23T13:34:59.278Z,38.31
2018-02-23T13:37:28.989Z,37.90
2018-02-23T13:39:58.724Z,37.63
2018-02-23T13:42:28.549Z,37.68
2018-02-23T13:44:58.263Z,37.28
2018-02-23T13:47:27.977Z,37.08
2018-02-23T13:49:57.807Z,36.83
2018-02-23T13:52:27.517Z,36.71
2018-02-23T13:54:57.374Z,36.89
2018-02-23T13:57:27.255Z,36.70
2018-02-23T13:59:56.981Z,36.40
2018-02-23T14:02:26.719Z,36.85
2018-02-23T14:04:56.522Z,37.01
2018-02-23T14:07:30.398Z,37.75
2018-02-23T14:10:00.931Z,37.34
2018-02-23T14:12:30.689Z,37.37
2018-02-23T14:15:00.488Z,37.07
2018-02-23T14:17:31.263Z,36.88
2018-02-23T14:20:01.028Z,37.12
2018-02-23T14:22:30.766Z,36.03
2018-02-23T14:25:01.291Z,36.15
2018-02-23T14:27:31.579Z,36.55
2018-02-23T14:30:01.438Z,36.88
2018-02-23T14:32:31.202Z,37.15
2018-02-23T14:35:02.633Z,37.26
2018-02-23T14:37:32.370Z,37.44
2018-02-23T14:40:02.655Z,37.57
2018-02-23T14:42:32.371Z,38.05
2018-02-23T14:45:02.897Z,38.42
2018-02-23T14:47:32.809Z,38.43
2018-02-23T14:51:14.839Z,38.34
2018-02-23T14:53:44.849Z,37.70
2018-02-23T14:56:15.415Z,37.61
2018-02-23T14:58:45.544Z,37.74
2018-02-23T15:01:15.351Z,37.71
2018-02-23T15:03:45.645Z,38.11
2018-02-23T15:06:15.525Z,38.23
2018-02-23T15:08:45.698Z,38.45
2018-02-23T15:11:15.535Z,38.47
2018-02-23T15:13:45.694Z,38.68
2018-02-23T15:16:16.656Z,38.65
2018-02-23T15:18:46.655Z,37.88
2018-02-23T15:21:16.742Z,37.85
2018-02-23T15:23:46.703Z,38.19
2018-02-23T15:26:16.463Z,38.44
2018-02-23T15:28:46.550Z,38.68
2018-02-23T15:32:27.571Z,38.83
2018-02-23T15:34:57.296Z,39.21
2018-02-23T15:37:28.107Z,38.87
2018-02-23T15:39:57.833Z,39.16
2018-02-23T15:42:28.195Z,39.22
2018-02-23T15:44:57.913Z,39.39
2018-02-23T15:47:28.067Z,39.71
2018-02-23T15:49:58.756Z,39.07
2018-02-23T15:52:29.828Z,39.33
2018-02-23T15:54:59.727Z,39.33
2018-02-23T15:57:29.911Z,39.48
2018-02-23T16:00:01.277Z,39.69
2018-02-23T16:02:31.811Z,39.92
2018-02-23T16:05:02.770Z,39.96
2018-02-23T16:07:40.603Z,40.24
2018-02-23T16:10:10.490Z,40.26
2018-02-23T16:12:40.760Z,40.46
2018-02-23T16:15:10.544Z,40.56
2018-02-23T16:17:40.951Z,40.52
2018-02-23T16:20:10.800Z,40.29
2018-02-23T16:22:41.096Z,40.35
2018-02-23T16:25:10.914Z,40.52
2018-02-23T16:27:40.705Z,40.74
2018-02-23T16:30:11.226Z,40.65
2018-02-23T16:32:42.422Z,40.64
2018-02-23T16:35:12.143Z,40.94
2018-02-23T16:37:42.440Z,41.16
2018-02-23T16:40:12.931Z,41.33
2018-02-23T16:42:43.735Z,41.55
2018-02-23T16:45:14.265Z,41.77
2018-02-23T16:47:44.663Z,41.81
2018-02-23T16:50:14.481Z,41.81
2018-02-23T16:52:44.923Z,42.16
2018-02-23T16:55:14.860Z,42.04
2018-02-23T16:57:45.828Z,42.08
2018-02-23T17:00:15.604Z,42.11
2018-02-23T17:02:46.285Z,42.28
2018-02-23T17:05:16.091Z,42.23
2018-02-23T17:07:46.563Z,42.32
2018-02-23T17:10:16.311Z,42.59
2018-02-23T17:12:53.109Z,42.86
2018-02-23T17:15:24.611Z,42.78
2018-02-23T17:17:54.327Z,47.88
2018-02-23T17:20:25.009Z,41.95
2018-02-23T17:22:55.034Z,42.34
2018-02-23T17:25:25.515Z,42.86
2018-02-23T17:27:55.379Z,43.14
2018-02-23T17:30:27.527Z,43.21
2018-02-23T17:32:57.612Z,43.19
2018-02-23T17:35:27.408Z,43.21
2018-02-23T17:37:57.697Z,43.48
2018-02-23T17:40:27.735Z,43.48
2018-02-23T17:42:58.509Z,43.64
2018-02-23T17:45:28.301Z,43.82
2018-02-23T17:47:59.329Z,43.82
2018-02-23T17:50:29.289Z,44.12
2018-02-23T17:52:59.691Z,44.23
2018-02-23T17:55:30.347Z,44.43
2018-02-23T17:58:00.505Z,44.72
2018-02-23T18:00:30.558Z,44.93
2018-02-23T18:03:01.454Z,44.74
2018-02-23T18:05:34.858Z,44.89
2018-02-23T18:08:07.614Z,45.11
2018-02-23T18:10:39.351Z,45.42
2018-02-23T18:13:11.849Z,45.34
2018-02-23T18:15:42.478Z,45.63
2018-02-23T18:18:15.478Z,45.76
2018-02-23T18:20:50.459Z,45.72
2018-02-23T18:23:20.206Z,46.02
2018-02-23T18:25:50.300Z,46.10
2018-02-23T18:28:20.478Z,46.40
2018-02-23T18:30:51.521Z,46.95
2018-02-23T18:33:21.448Z,47.76
2018-02-23T18:35:51.486Z,49.90
2018-02-23T18:38:22.085Z,49.57
2018-02-23T18:40:52.398Z,49.81
2018-02-23T18:43:22.276Z,50.42
2018-02-23T18:45:52.288Z,50.94
2018-02-23T18:48:22.076Z,51.21
2018-02-23T18:50:52.667Z,51.61
2018-02-23T18:53:22.685Z,51.89
2018-02-23T18:55:53.409Z,52.39
2018-02-23T18:58:23.424Z,52.57
2018-02-23T19:00:53.966Z,52.74
2018-02-23T19:03:23.721Z,52.69
2018-02-23T19:05:54.359Z,53.00
2018-02-23T19:08:24.257Z,53.21
2018-02-23T19:10:54.776Z,53.00
2018-02-23T19:13:24.587Z,53.34
2018-02-23T19:15:56.657Z,53.53
2018-02-23T19:18:26.473Z,53.35
2018-02-23T19:20:57.141Z,53.73
2018-02-23T19:23:28.134Z,53.75
2018-02-23T19:25:58.549Z,53.85
2018-02-23T19:28:28.483Z,54.21
2018-02-23T19:30:59.105Z,54.06
2018-02-23T19:33:29.940Z,53.95
2018-02-23T19:36:00.037Z,53.99
2018-02-23T19:38:30.110Z,54.03
2018-02-23T19:41:00.214Z,54.05
2018-02-23T19:43:30.080Z,54.20
2018-02-23T19:46:00.981Z,54.37
2018-02-23T19:48:30.844Z,54.39
2018-02-23T19:51:00.668Z,54.10
2018-02-23T19:53:30.425Z,54.15
2018-02-23T19:56:00.258Z,53.83
2018-02-23T19:58:29.975Z,53.67
2018-02-23T20:00:59.768Z,53.38
2018-02-23T20:03:29.969Z,53.41
2018-02-23T20:05:59.789Z,52.81
2018-02-23T20:08:30.024Z,51.94
2018-02-23T20:10:59.808Z,51.89
2018-02-23T20:13:29.545Z,51.18
2018-02-23T20:15:59.494Z,51.21
2018-02-23T20:18:29.300Z,50.21
2018-02-23T20:20:59.041Z,49.44
2018-02-23T20:23:29.599Z,49.33
2018-02-23T20:25:59.353Z,48.92
2018-02-23T20:28:29.125Z,48.59
2018-02-23T20:30:58.853Z,48.50
2018-02-23T20:33:29.388Z,47.96
2018-02-23T20:36:00.080Z,47.40
2018-02-23T20:38:30.073Z,46.95
2018-02-23T20:41:00.733Z,46.89
2018-02-23T20:43:30.499Z,46.67
2018-02-23T20:46:00.228Z,46.74
2018-02-23T20:48:30.038Z,46.85
2018-02-23T20:50:59.844Z,46.02
2018-02-23T20:53:29.546Z,45.98
2018-02-23T20:55:59.799Z,45.78
2018-02-23T20:58:30.796Z,45.56
2018-02-23T21:01:00.517Z,45.55
2018-02-23T21:03:30.239Z,45.54
2018-02-23T21:06:00.015Z,45.43
2018-02-23T21:08:29.754Z,45.44
2018-02-23T21:10:59.457Z,45.44
2018-02-23T21:13:29.185Z,45.21
2018-02-23T21:15:58.860Z,45.44
2018-02-23T21:18:28.631Z,45.00
2018-02-23T21:20:58.532Z,44.98
2018-02-23T21:23:29.033Z,45.05
2018-02-23T21:25:58.866Z,45.04
2018-02-23T21:28:28.624Z,45.11
2018-02-23T21:30:59.208Z,44.87
2018-02-23T21:33:28.987Z,45.18
2018-02-23T21:35:59.658Z,45.26
2018-02-23T21:38:29.353Z,45.32
2018-02-23T21:40:59.837Z,45.50
2018-02-23T21:43:29.560Z,45.56
2018-02-23T21:45:59.407Z,45.51
2018-02-23T21:48:29.139Z,45.23
2018-02-23T21:50:58.943Z,45.56
2018-02-23T21:53:28.685Z,45.53
2018-02-23T21:55:58.433Z,45.59
2018-02-23T21:58:29.121Z,45.50
2018-02-23T22:00:58.832Z,45.57
2018-02-23T22:03:28.689Z,45.52
2018-02-23T22:05:58.489Z,45.71
2018-02-23T22:08:28.244Z,45.77
2018-02-23T22:10:58.190Z,45.82
2018-02-23T22:13:28.808Z,45.61
2018-02-23T22:15:58.535Z,45.71
2018-02-23T22:18:28.251Z,45.68
2018-02-23T22:20:58.047Z,45.77
2018-02-23T22:23:27.948Z,45.69
2018-02-23T22:25:57.690Z,45.63
2018-02-23T22:28:27.456Z,47.58
2018-02-23T22:30:57.215Z,45.36
2018-02-23T22:33:26.968Z,45.70
2018-02-23T22:35:57.566Z,45.66
2018-02-23T22:38:28.089Z,45.63
2018-02-23T22:40:58.942Z,45.88
2018-02-23T22:43:28.696Z,45.89
2018-02-23T22:45:58.629Z,46.07
2018-02-23T22:48:28.369Z,46.05
2018-02-23T22:50:58.182Z,45.98
2018-02-23T22:53:27.998Z,45.86
2018-02-23T22:55:57.745Z,46.10
2018-02-23T22:58:27.524Z,46.27
2018-02-23T23:00:58.022Z,46.53
2018-02-23T23:03:27.754Z,46.15
2018-02-23T23:05:57.521Z,46.25
2018-02-23T23:08:27.252Z,46.05
2018-02-23T23:10:57.028Z,46.17
2018-02-23T23:13:26.868Z,46.22
2018-02-23T23:15:57.407Z,46.22
2018-02-23T23:18:27.920Z,46.27
2018-02-23T23:20:57.672Z,46.18
2018-02-23T23:23:28.135Z,46.34
2018-02-23T23:25:57.857Z,46.49
2018-02-23T23:28:27.705Z,46.53
2018-02-23T23:30:57.480Z,46.48
2018-02-23T23:33:28.042Z,46.68
2018-02-23T23:35:57.770Z,46.60
2018-02-23T23:38:27.500Z,46.41
2018-02-23T23:41:00.468Z,46.63
2018-02-23T23:43:30.257Z,46.46
2018-02-23T23:46:00.155Z,46.61
2018-02-23T23:48:29.988Z,46.74
2018-02-23T23:50:59.991Z,46.74
2018-02-23T23:53:29.789Z,46.84
2018-02-23T23:56:00.360Z,46.87
2018-02-23T23:58:30.341Z,46.95
